<?xml version="1.0" encoding="UTF-8" standalone="no" ?>
<gpx xmlns="http://www.topografix.com/GPX/1/1" xmlns:xsi="http://www.w3.org/2001/XMLSchema-instance" xsi:schemaLocation="http://www.topografix.com/GPX/1/1 http://www.topografix.com/GPX/1/1/gpx.xsd" version="1.1" creator="VisuGPX - https://www.visugpx.com">
  <metadata>
    <name>Monts d'Ardèche - Jour 3 - De Saint-Andéol-de-Vals à Vals-les-Bains</name>
  </metadata>
  <trk>
    <name><![CDATA[Monts d'Ardèche - Jour 3 - De Saint-Andéol-de-Vals à Vals-les-Bains]]></name>
    <trkseg>
      <trkpt lat="44.64418" lon="4.38755">
        <ele>239.432009</ele>
        <time>2022-04-05T08:41:38.435Z</time>
      </trkpt>
      <trkpt lat="44.64424" lon="4.38764">
        <ele>239.432009</ele>
        <time>2022-04-05T08:41:48.007Z</time>
      </trkpt>
      <trkpt lat="44.64435" lon="4.3878">
        <ele>239.432009</ele>
        <time>2022-04-05T08:42:05.275Z</time>
      </trkpt>
      <trkpt lat="44.64444" lon="4.38792">
        <ele>239.432009</ele>
        <time>2022-04-05T08:42:17.474Z</time>
      </trkpt>
      <trkpt lat="44.64458" lon="4.38801">
        <ele>239.432009</ele>
        <time>2022-04-05T08:42:33.840Z</time>
      </trkpt>
      <trkpt lat="44.64508" lon="4.38806">
        <ele>239.90341</ele>
        <time>2022-04-05T08:43:27.263Z</time>
      </trkpt>
      <trkpt lat="44.64514" lon="4.38795">
        <ele>240.281332</ele>
        <time>2022-04-05T08:43:37.913Z</time>
      </trkpt>
      <trkpt lat="44.64527" lon="4.38767">
        <ele>241.147911</ele>
        <time>2022-04-05T08:44:04.377Z</time>
      </trkpt>
      <trkpt lat="44.64568" lon="4.38805">
        <ele>242.977427</ele>
        <time>2022-04-05T08:44:59.747Z</time>
      </trkpt>
      <trkpt lat="44.64576" lon="4.38787">
        <ele>243.544294</ele>
        <time>2022-04-05T08:45:17.458Z</time>
      </trkpt>
      <trkpt lat="44.64584" lon="4.3879">
        <ele>243.839248</ele>
        <time>2022-04-05T08:45:26.477Z</time>
      </trkpt>
      <trkpt lat="44.64595" lon="4.38775">
        <ele>244.401424</ele>
        <time>2022-04-05T08:45:43.205Z</time>
      </trkpt>
      <trkpt lat="44.64613" lon="4.3879">
        <ele>245.192923</ele>
        <time>2022-04-05T08:46:07.864Z</time>
      </trkpt>
      <trkpt lat="44.64625" lon="4.38796">
        <ele>245.665072</ele>
        <time>2022-04-05T08:46:21.991Z</time>
      </trkpt>
      <trkpt lat="44.64637" lon="4.38771">
        <ele>246.849197</ele>
        <time>2022-04-05T08:46:47.430Z</time>
      </trkpt>
      <trkpt lat="44.64613" lon="4.38705">
        <ele>250.907455</ele>
        <time>2022-04-05T08:47:54.099Z</time>
      </trkpt>
      <trkpt lat="44.6465" lon="4.38703">
        <ele>253.784112</ele>
        <time>2022-04-05T08:48:41.109Z</time>
      </trkpt>
      <trkpt lat="44.6467" lon="4.38714">
        <ele>255.407506</ele>
        <time>2022-04-05T08:49:07.828Z</time>
      </trkpt>
      <trkpt lat="44.64693" lon="4.38731">
        <ele>257.409217</ele>
        <time>2022-04-05T08:49:41.658Z</time>
      </trkpt>
      <trkpt lat="44.64719" lon="4.38747">
        <ele>259.508467</ele>
        <time>2022-04-05T08:50:19.217Z</time>
      </trkpt>
      <trkpt lat="44.64739" lon="4.3878">
        <ele>261.914725</ele>
        <time>2022-04-05T08:51:01.808Z</time>
      </trkpt>
      <trkpt lat="44.64758" lon="4.38793">
        <ele>263.529513</ele>
        <time>2022-04-05T08:51:29.371Z</time>
      </trkpt>
      <trkpt lat="44.64773" lon="4.38828">
        <ele>265.723778</ele>
        <time>2022-04-05T08:52:05.010Z</time>
      </trkpt>
      <trkpt lat="44.64771" lon="4.38869">
        <ele>267.963972</ele>
        <time>2022-04-05T08:52:41.815Z</time>
      </trkpt>
      <trkpt lat="44.64769" lon="4.38876">
        <ele>268.329816</ele>
        <time>2022-04-05T08:52:47.156Z</time>
      </trkpt>
      <trkpt lat="44.64768" lon="4.38881">
        <ele>268.616311</ele>
        <time>2022-04-05T08:52:51.840Z</time>
      </trkpt>
      <trkpt lat="44.64765" lon="4.38896">
        <ele>269.48371</ele>
        <time>2022-04-05T08:53:06.236Z</time>
      </trkpt>
      <trkpt lat="44.64773" lon="4.38908">
        <ele>270.392375</ele>
        <time>2022-04-05T08:53:21.481Z</time>
      </trkpt>
      <trkpt lat="44.64787" lon="4.38928">
        <ele>271.886627</ele>
        <time>2022-04-05T08:53:44.968Z</time>
      </trkpt>
      <trkpt lat="44.64785" lon="4.38933">
        <ele>272.206426</ele>
        <time>2022-04-05T08:53:49.794Z</time>
      </trkpt>
      <trkpt lat="44.64784" lon="4.38941">
        <ele>272.625532</ele>
        <time>2022-04-05T08:53:56.501Z</time>
      </trkpt>
      <trkpt lat="44.64778" lon="4.38986">
        <ele>274.923526</ele>
        <time>2022-04-05T08:54:35.818Z</time>
      </trkpt>
      <trkpt lat="44.64761" lon="4.38999">
        <ele>276.215892</ele>
        <time>2022-04-05T08:54:58.598Z</time>
      </trkpt>
      <trkpt lat="44.64754" lon="4.39024">
        <ele>277.486438</ele>
        <time>2022-04-05T08:55:22.912Z</time>
      </trkpt>
      <trkpt lat="44.64863" lon="4.39053">
        <ele>284.918315</ele>
        <time>2022-04-05T08:57:36.200Z</time>
      </trkpt>
      <trkpt lat="44.64877" lon="4.39053">
        <ele>286.112726</ele>
        <time>2022-04-05T08:57:53.069Z</time>
      </trkpt>
      <trkpt lat="44.64921" lon="4.39034">
        <ele>292.56098</ele>
        <time>2022-04-05T08:58:55.059Z</time>
      </trkpt>
      <trkpt lat="44.64937" lon="4.39035">
        <ele>294.766737</ele>
        <time>2022-04-05T08:59:19.779Z</time>
      </trkpt>
      <trkpt lat="44.64965" lon="4.39045">
        <ele>298.77998</ele>
        <time>2022-04-05T09:00:10.279Z</time>
      </trkpt>
      <trkpt lat="44.64995" lon="4.39043">
        <ele>302.983685</ele>
        <time>2022-04-05T09:01:04.362Z</time>
      </trkpt>
      <trkpt lat="44.64993" lon="4.38976">
        <ele>309.603042</ele>
        <time>2022-04-05T09:02:29.107Z</time>
      </trkpt>
      <trkpt lat="44.64985" lon="4.3893">
        <ele>314.052547</ele>
        <time>2022-04-05T09:03:25.592Z</time>
      </trkpt>
      <trkpt lat="44.64986" lon="4.38897">
        <ele>317.061522</ele>
        <time>2022-04-05T09:04:04.413Z</time>
      </trkpt>
      <trkpt lat="44.65001" lon="4.38881">
        <ele>319.444081</ele>
        <time>2022-04-05T09:04:35.039Z</time>
      </trkpt>
      <trkpt lat="44.65112" lon="4.38841">
        <ele>334.030415</ele>
        <time>2022-04-05T09:07:23.757Z</time>
      </trkpt>
      <trkpt lat="44.65137" lon="4.38826">
        <ele>335.341119</ele>
        <time>2022-04-05T09:07:58.394Z</time>
      </trkpt>
      <trkpt lat="44.65161" lon="4.38804">
        <ele>336.694416</ele>
        <time>2022-04-05T09:08:28.620Z</time>
      </trkpt>
      <trkpt lat="44.65175" lon="4.38774">
        <ele>337.908708</ele>
        <time>2022-04-05T09:08:55.000Z</time>
      </trkpt>
      <trkpt lat="44.65188" lon="4.38766">
        <ele>338.589563</ele>
        <time>2022-04-05T09:09:09.793Z</time>
      </trkpt>
      <trkpt lat="44.65206" lon="4.38766">
        <ele>339.407846</ele>
        <time>2022-04-05T09:09:28.232Z</time>
      </trkpt>
      <trkpt lat="44.65221" lon="4.38742">
        <ele>340.499898</ele>
        <time>2022-04-05T09:09:54.199Z</time>
      </trkpt>
      <trkpt lat="44.65224" lon="4.3872">
        <ele>341.25893</ele>
        <time>2022-04-05T09:10:11.686Z</time>
      </trkpt>
      <trkpt lat="44.65258" lon="4.38688">
        <ele>344.155733</ele>
        <time>2022-04-05T09:10:58.922Z</time>
      </trkpt>
      <trkpt lat="44.65282" lon="4.38705">
        <ele>346.89923</ele>
        <time>2022-04-05T09:11:33.073Z</time>
      </trkpt>
      <trkpt lat="44.65305" lon="4.38696">
        <ele>349.405616</ele>
        <time>2022-04-05T09:12:06.264Z</time>
      </trkpt>
      <trkpt lat="44.65311" lon="4.38681">
        <ele>350.665733</ele>
        <time>2022-04-05T09:12:22.590Z</time>
      </trkpt>
      <trkpt lat="44.65317" lon="4.38658">
        <ele>352.389199</ele>
        <time>2022-04-05T09:12:48.042Z</time>
      </trkpt>
      <trkpt lat="44.65308" lon="4.38604">
        <ele>356.420249</ele>
        <time>2022-04-05T09:13:43.662Z</time>
      </trkpt>
      <trkpt lat="44.65313" lon="4.38593">
        <ele>357.40385</ele>
        <time>2022-04-05T09:13:56.682Z</time>
      </trkpt>
      <trkpt lat="44.65321" lon="4.38595">
        <ele>358.205278</ele>
        <time>2022-04-05T09:14:07.329Z</time>
      </trkpt>
      <trkpt lat="44.65326" lon="4.38604">
        <ele>359.005516</ele>
        <time>2022-04-05T09:14:20.172Z</time>
      </trkpt>
      <trkpt lat="44.6535" lon="4.38579">
        <ele>362.328513</ele>
        <time>2022-04-05T09:15:04.807Z</time>
      </trkpt>
      <trkpt lat="44.65362" lon="4.38546">
        <ele>365.590588</ele>
        <time>2022-04-05T09:15:47.047Z</time>
      </trkpt>
      <trkpt lat="44.65388" lon="4.38562">
        <ele>369.125778</ele>
        <time>2022-04-05T09:16:31.942Z</time>
      </trkpt>
      <trkpt lat="44.65406" lon="4.38547">
        <ele>371.659954</ele>
        <time>2022-04-05T09:17:00.567Z</time>
      </trkpt>
      <trkpt lat="44.65429" lon="4.38516">
        <ele>375.636979</ele>
        <time>2022-04-05T09:17:52.498Z</time>
      </trkpt>
      <trkpt lat="44.65448" lon="4.3848">
        <ele>379.552182</ele>
        <time>2022-04-05T09:18:43.769Z</time>
      </trkpt>
      <trkpt lat="44.65462" lon="4.38474">
        <ele>381.44576</ele>
        <time>2022-04-05T09:19:04.326Z</time>
      </trkpt>
      <trkpt lat="44.65478" lon="4.38477">
        <ele>383.301286</ele>
        <time>2022-04-05T09:19:24.173Z</time>
      </trkpt>
      <trkpt lat="44.65489" lon="4.3849">
        <ele>384.150933</ele>
        <time>2022-04-05T09:19:42.106Z</time>
      </trkpt>
      <trkpt lat="44.65527" lon="4.38478">
        <ele>386.359942</ele>
        <time>2022-04-05T09:20:28.842Z</time>
      </trkpt>
      <trkpt lat="44.6556" lon="4.38446">
        <ele>388.687124</ele>
        <time>2022-04-05T09:21:17.189Z</time>
      </trkpt>
      <trkpt lat="44.65558" lon="4.38436">
        <ele>389.117542</ele>
        <time>2022-04-05T09:21:25.916Z</time>
      </trkpt>
      <trkpt lat="44.6556" lon="4.38409">
        <ele>390.224133</ele>
        <time>2022-04-05T09:21:47.636Z</time>
      </trkpt>
      <trkpt lat="44.65568" lon="4.38394">
        <ele>391.002793</ele>
        <time>2022-04-05T09:22:03.194Z</time>
      </trkpt>
      <trkpt lat="44.65577" lon="4.38362">
        <ele>392.405499</ele>
        <time>2022-04-05T09:22:30.088Z</time>
      </trkpt>
      <trkpt lat="44.65597" lon="4.38332">
        <ele>394.077421</ele>
        <time>2022-04-05T09:23:03.322Z</time>
      </trkpt>
      <trkpt lat="44.65604" lon="4.38303">
        <ele>395.287083</ele>
        <time>2022-04-05T09:23:29.039Z</time>
      </trkpt>
      <trkpt lat="44.65595" lon="4.38273">
        <ele>396.579535</ele>
        <time>2022-04-05T09:23:56.192Z</time>
      </trkpt>
      <trkpt lat="44.65577" lon="4.38255">
        <ele>397.826015</ele>
        <time>2022-04-05T09:24:20.742Z</time>
      </trkpt>
      <trkpt lat="44.6556" lon="4.38216">
        <ele>399.633604</ele>
        <time>2022-04-05T09:24:57.547Z</time>
      </trkpt>
      <trkpt lat="44.65548" lon="4.38188">
        <ele>400.930922</ele>
        <time>2022-04-05T09:25:25.411Z</time>
      </trkpt>
      <trkpt lat="44.65537" lon="4.38161">
        <ele>402.134796</ele>
        <time>2022-04-05T09:25:52.424Z</time>
      </trkpt>
      <trkpt lat="44.65548" lon="4.38117">
        <ele>404.538537</ele>
        <time>2022-04-05T09:26:35.381Z</time>
      </trkpt>
      <trkpt lat="44.65553" lon="4.38128">
        <ele>405.810774</ele>
        <time>2022-04-05T09:26:48.093Z</time>
      </trkpt>
      <trkpt lat="44.6556" lon="4.38145">
        <ele>407.654422</ele>
        <time>2022-04-05T09:27:06.372Z</time>
      </trkpt>
      <trkpt lat="44.65583" lon="4.38142">
        <ele>410.795863</ele>
        <time>2022-04-05T09:27:40.916Z</time>
      </trkpt>
      <trkpt lat="44.65612" lon="4.38123">
        <ele>415.052672</ele>
        <time>2022-04-05T09:28:27.566Z</time>
      </trkpt>
      <trkpt lat="44.65649" lon="4.38124">
        <ele>419.914215</ele>
        <time>2022-04-05T09:29:25.432Z</time>
      </trkpt>
      <trkpt lat="44.65672" lon="4.38134">
        <ele>423.154208</ele>
        <time>2022-04-05T09:30:07.195Z</time>
      </trkpt>
      <trkpt lat="44.65675" lon="4.38135">
        <ele>423.460377</ele>
        <time>2022-04-05T09:30:11.840Z</time>
      </trkpt>
      <trkpt lat="44.65729" lon="4.38159">
        <ele>431.289729</ele>
        <time>2022-04-05T09:31:53.798Z</time>
      </trkpt>
      <trkpt lat="44.65774" lon="4.38137">
        <ele>438.211431</ele>
        <time>2022-04-05T09:33:16.682Z</time>
      </trkpt>
      <trkpt lat="44.65823" lon="4.38154">
        <ele>445.421339</ele>
        <time>2022-04-05T09:34:39.838Z</time>
      </trkpt>
      <trkpt lat="44.65831" lon="4.38103">
        <ele>450.736119</ele>
        <time>2022-04-05T09:35:33.939Z</time>
      </trkpt>
      <trkpt lat="44.65871" lon="4.38098">
        <ele>454.320096</ele>
        <time>2022-04-05T09:36:27.331Z</time>
      </trkpt>
      <trkpt lat="44.65923" lon="4.3806">
        <ele>457.182154</ele>
        <time>2022-04-05T09:37:42.120Z</time>
      </trkpt>
      <trkpt lat="44.65937" lon="4.38057">
        <ele>457.869987</ele>
        <time>2022-04-05T09:37:58.772Z</time>
      </trkpt>
      <trkpt lat="44.65977" lon="4.38033">
        <ele>459.975929</ele>
        <time>2022-04-05T09:38:45.309Z</time>
      </trkpt>
      <trkpt lat="44.66089" lon="4.38053">
        <ele>459.518904</ele>
        <time>2022-04-05T09:40:40.521Z</time>
      </trkpt>
      <trkpt lat="44.66137" lon="4.38021">
        <ele>457.695922</ele>
        <time>2022-04-05T09:41:35.400Z</time>
      </trkpt>
      <trkpt lat="44.66173" lon="4.38033">
        <ele>456.422258</ele>
        <time>2022-04-05T09:42:18.746Z</time>
      </trkpt>
      <trkpt lat="44.66191" lon="4.38032">
        <ele>455.760406</ele>
        <time>2022-04-05T09:42:38.774Z</time>
      </trkpt>
      <trkpt lat="44.66239" lon="4.38007">
        <ele>450.307986</ele>
        <time>2022-04-05T09:43:41.209Z</time>
      </trkpt>
      <trkpt lat="44.66291" lon="4.37994">
        <ele>444.725206</ele>
        <time>2022-04-05T09:44:40.705Z</time>
      </trkpt>
      <trkpt lat="44.66297" lon="4.38014">
        <ele>443.103644</ele>
        <time>2022-04-05T09:45:08.612Z</time>
      </trkpt>
      <trkpt lat="44.66299" lon="4.38055">
        <ele>439.97064</ele>
        <time>2022-04-05T09:45:42.612Z</time>
      </trkpt>
      <trkpt lat="44.66291" lon="4.38098">
        <ele>436.624845</ele>
        <time>2022-04-05T09:46:21.260Z</time>
      </trkpt>
      <trkpt lat="44.66297" lon="4.38113">
        <ele>435.522007</ele>
        <time>2022-04-05T09:46:44.147Z</time>
      </trkpt>
      <trkpt lat="44.66274" lon="4.38135">
        <ele>433.078193</ele>
        <time>2022-04-05T09:47:15.552Z</time>
      </trkpt>
      <trkpt lat="44.66267" lon="4.38134">
        <ele>432.447946</ele>
        <time>2022-04-05T09:47:30.353Z</time>
      </trkpt>
      <trkpt lat="44.66242" lon="4.3815">
        <ele>430.079392</ele>
        <time>2022-04-05T09:48:00.060Z</time>
      </trkpt>
      <trkpt lat="44.66237" lon="4.3816">
        <ele>429.360718</ele>
        <time>2022-04-05T09:48:17.892Z</time>
      </trkpt>
      <trkpt lat="44.66267" lon="4.38181">
        <ele>426.487251</ele>
        <time>2022-04-05T09:48:53.486Z</time>
      </trkpt>
      <trkpt lat="44.66276" lon="4.3818">
        <ele>425.68551</ele>
        <time>2022-04-05T09:49:03.782Z</time>
      </trkpt>
      <trkpt lat="44.663" lon="4.38155">
        <ele>423.109877</ele>
        <time>2022-04-05T09:49:37.263Z</time>
      </trkpt>
      <trkpt lat="44.6631" lon="4.38151">
        <ele>422.198005</ele>
        <time>2022-04-05T09:49:49.157Z</time>
      </trkpt>
      <trkpt lat="44.66331" lon="4.38148">
        <ele>420.96833</ele>
        <time>2022-04-05T09:50:12.110Z</time>
      </trkpt>
      <trkpt lat="44.66346" lon="4.38138">
        <ele>420.684958</ele>
        <time>2022-04-05T09:50:29.983Z</time>
      </trkpt>
      <trkpt lat="44.66378" lon="4.38141">
        <ele>420.124104</ele>
        <time>2022-04-05T09:51:06.633Z</time>
      </trkpt>
      <trkpt lat="44.66393" lon="4.38148">
        <ele>419.858613</ele>
        <time>2022-04-05T09:51:22.480Z</time>
      </trkpt>
      <trkpt lat="44.66448" lon="4.38209">
        <ele>418.657761</ele>
        <time>2022-04-05T09:52:32.977Z</time>
      </trkpt>
      <trkpt lat="44.66493" lon="4.38233">
        <ele>418.238701</ele>
        <time>2022-04-05T09:53:21.617Z</time>
      </trkpt>
      <trkpt lat="44.66533" lon="4.38234">
        <ele>418.921078</ele>
        <time>2022-04-05T09:54:01.649Z</time>
      </trkpt>
      <trkpt lat="44.6655" lon="4.38212">
        <ele>419.318661</ele>
        <time>2022-04-05T09:54:25.220Z</time>
      </trkpt>
      <trkpt lat="44.66554" lon="4.38188">
        <ele>419.628236</ele>
        <time>2022-04-05T09:54:44.501Z</time>
      </trkpt>
      <trkpt lat="44.66541" lon="4.38103">
        <ele>420.691752</ele>
        <time>2022-04-05T09:55:50.368Z</time>
      </trkpt>
      <trkpt lat="44.66541" lon="4.38103">
        <ele>420.691752</ele>
        <time>2022-04-05T09:55:50.695Z</time>
      </trkpt>
      <trkpt lat="44.66546" lon="4.38095">
        <ele>420.832961</ele>
        <time>2022-04-05T09:55:59.919Z</time>
      </trkpt>
      <trkpt lat="44.6665" lon="4.38056">
        <ele>424.933217</ele>
        <time>2022-04-05T09:58:03.169Z</time>
      </trkpt>
      <trkpt lat="44.66663" lon="4.3803">
        <ele>425.920976</ele>
        <time>2022-04-05T09:58:30.469Z</time>
      </trkpt>
      <trkpt lat="44.66658" lon="4.37995">
        <ele>427.006553</ele>
        <time>2022-04-05T09:59:01.721Z</time>
      </trkpt>
      <trkpt lat="44.66614" lon="4.3792">
        <ele>428.590644</ele>
        <time>2022-04-05T10:00:21.198Z</time>
      </trkpt>
      <trkpt lat="44.66564" lon="4.37884">
        <ele>428.120239</ele>
        <time>2022-04-05T10:01:18.269Z</time>
      </trkpt>
      <trkpt lat="44.66554" lon="4.37864">
        <ele>427.97461</ele>
        <time>2022-04-05T10:01:36.291Z</time>
      </trkpt>
      <trkpt lat="44.66558" lon="4.37854">
        <ele>427.903371</ele>
        <time>2022-04-05T10:01:45.176Z</time>
      </trkpt>
      <trkpt lat="44.66589" lon="4.37832">
        <ele>427.609589</ele>
        <time>2022-04-05T10:02:22.900Z</time>
      </trkpt>
      <trkpt lat="44.66597" lon="4.37819">
        <ele>427.509274</ele>
        <time>2022-04-05T10:02:36.050Z</time>
      </trkpt>
      <trkpt lat="44.66614" lon="4.37811">
        <ele>427.361705</ele>
        <time>2022-04-05T10:02:55.398Z</time>
      </trkpt>
      <trkpt lat="44.66743" lon="4.37792">
        <ele>423.259695</ele>
        <time>2022-04-05T10:05:17.057Z</time>
      </trkpt>
      <trkpt lat="44.6675" lon="4.3779">
        <ele>423.044576</ele>
        <time>2022-04-05T10:05:24.388Z</time>
      </trkpt>
      <trkpt lat="44.66735" lon="4.37774">
        <ele>422.431092</ele>
        <time>2022-04-05T10:05:43.204Z</time>
      </trkpt>
      <trkpt lat="44.66699" lon="4.37766">
        <ele>421.34238</ele>
        <time>2022-04-05T10:06:20.766Z</time>
      </trkpt>
      <trkpt lat="44.66682" lon="4.37752">
        <ele>421.028325</ele>
        <time>2022-04-05T10:06:42.104Z</time>
      </trkpt>
      <trkpt lat="44.66672" lon="4.37752">
        <ele>420.872342</ele>
        <time>2022-04-05T10:06:53.686Z</time>
      </trkpt>
      <trkpt lat="44.66637" lon="4.37695">
        <ele>420.040305</ele>
        <time>2022-04-05T10:07:47.810Z</time>
      </trkpt>
      <trkpt lat="44.66619" lon="4.37687">
        <ele>419.74744</ele>
        <time>2022-04-05T10:08:09.083Z</time>
      </trkpt>
      <trkpt lat="44.666" lon="4.37667">
        <ele>419.38029</ele>
        <time>2022-04-05T10:08:33.048Z</time>
      </trkpt>
      <trkpt lat="44.66553" lon="4.37651">
        <ele>418.59959</ele>
        <time>2022-04-05T10:09:22.646Z</time>
      </trkpt>
      <trkpt lat="44.6654" lon="4.37633">
        <ele>416.601211</ele>
        <time>2022-04-05T10:09:43.491Z</time>
      </trkpt>
      <trkpt lat="44.66529" lon="4.3758">
        <ele>412.212384</ele>
        <time>2022-04-05T10:10:31.050Z</time>
      </trkpt>
      <trkpt lat="44.66524" lon="4.37489">
        <ele>404.965065</ele>
        <time>2022-04-05T10:11:53.123Z</time>
      </trkpt>
      <trkpt lat="44.66518" lon="4.37475">
        <ele>403.717128</ele>
        <time>2022-04-05T10:12:06.856Z</time>
      </trkpt>
      <trkpt lat="44.66493" lon="4.37467">
        <ele>400.842174</ele>
        <time>2022-04-05T10:12:40.055Z</time>
      </trkpt>
      <trkpt lat="44.66482" lon="4.37439">
        <ele>398.261345</ele>
        <time>2022-04-05T10:13:09.134Z</time>
      </trkpt>
      <trkpt lat="44.66368" lon="4.3739">
        <ele>384.17726</ele>
        <time>2022-04-05T10:15:40.167Z</time>
      </trkpt>
      <trkpt lat="44.66338" lon="4.37338">
        <ele>378.620038</ele>
        <time>2022-04-05T10:16:36.397Z</time>
      </trkpt>
      <trkpt lat="44.66313" lon="4.37276">
        <ele>375.472816</ele>
        <time>2022-04-05T10:17:33.786Z</time>
      </trkpt>
      <trkpt lat="44.66313" lon="4.37276">
        <ele>375.472816</ele>
        <time>2022-04-05T10:17:34.624Z</time>
      </trkpt>
      <trkpt lat="44.66306" lon="4.37268">
        <ele>375.020877</ele>
        <time>2022-04-05T10:17:45.492Z</time>
      </trkpt>
      <trkpt lat="44.66268" lon="4.37254">
        <ele>373.099026</ele>
        <time>2022-04-05T10:18:28.466Z</time>
      </trkpt>
      <trkpt lat="44.66255" lon="4.37242">
        <ele>372.309392</ele>
        <time>2022-04-05T10:18:45.178Z</time>
      </trkpt>
      <trkpt lat="44.66246" lon="4.37229">
        <ele>371.685399</ele>
        <time>2022-04-05T10:18:59.341Z</time>
      </trkpt>
      <trkpt lat="44.66235" lon="4.37192">
        <ele>370.242692</ele>
        <time>2022-04-05T10:19:30.033Z</time>
      </trkpt>
      <trkpt lat="44.66227" lon="4.37138">
        <ele>368.59325</ele>
        <time>2022-04-05T10:20:11.724Z</time>
      </trkpt>
      <trkpt lat="44.66229" lon="4.37126">
        <ele>368.605532</ele>
        <time>2022-04-05T10:20:21.566Z</time>
      </trkpt>
      <trkpt lat="44.66239" lon="4.37117">
        <ele>368.623077</ele>
        <time>2022-04-05T10:20:35.084Z</time>
      </trkpt>
      <trkpt lat="44.66291" lon="4.37105">
        <ele>368.696063</ele>
        <time>2022-04-05T10:21:29.701Z</time>
      </trkpt>
      <trkpt lat="44.66344" lon="4.37106">
        <ele>368.770541</ele>
        <time>2022-04-05T10:22:25.187Z</time>
      </trkpt>
      <trkpt lat="44.66371" lon="4.3711">
        <ele>368.807796</ele>
        <time>2022-04-05T10:22:52.224Z</time>
      </trkpt>
      <trkpt lat="44.6639" lon="4.37124">
        <ele>368.807955</ele>
        <time>2022-04-05T10:23:15.953Z</time>
      </trkpt>
      <trkpt lat="44.66409" lon="4.3715">
        <ele>368.110155</ele>
        <time>2022-04-05T10:23:42.313Z</time>
      </trkpt>
      <trkpt lat="44.66425" lon="4.37151">
        <ele>367.673277</ele>
        <time>2022-04-05T10:23:58.706Z</time>
      </trkpt>
      <trkpt lat="44.66434" lon="4.37162">
        <ele>367.342283</ele>
        <time>2022-04-05T10:24:11.615Z</time>
      </trkpt>
      <trkpt lat="44.66466" lon="4.37207">
        <ele>366.132488</ele>
        <time>2022-04-05T10:24:57.608Z</time>
      </trkpt>
      <trkpt lat="44.66474" lon="4.37231">
        <ele>365.631999</ele>
        <time>2022-04-05T10:25:17.123Z</time>
      </trkpt>
      <trkpt lat="44.66482" lon="4.37236">
        <ele>365.394385</ele>
        <time>2022-04-05T10:25:26.698Z</time>
      </trkpt>
      <trkpt lat="44.66503" lon="4.37217">
        <ele>364.716804</ele>
        <time>2022-04-05T10:25:53.781Z</time>
      </trkpt>
      <trkpt lat="44.66515" lon="4.3722">
        <ele>364.402626</ele>
        <time>2022-04-05T10:26:07.128Z</time>
      </trkpt>
      <trkpt lat="44.66547" lon="4.37244">
        <ele>362.14409</ele>
        <time>2022-04-05T10:26:49.025Z</time>
      </trkpt>
      <trkpt lat="44.66558" lon="4.37269">
        <ele>360.335007</ele>
        <time>2022-04-05T10:27:13.030Z</time>
      </trkpt>
      <trkpt lat="44.66577" lon="4.37268">
        <ele>358.753147</ele>
        <time>2022-04-05T10:27:34.405Z</time>
      </trkpt>
      <trkpt lat="44.66591" lon="4.37278">
        <ele>357.30236</ele>
        <time>2022-04-05T10:27:53.764Z</time>
      </trkpt>
      <trkpt lat="44.66609" lon="4.37304">
        <ele>355.087213</ele>
        <time>2022-04-05T10:28:23.658Z</time>
      </trkpt>
      <trkpt lat="44.66635" lon="4.3736">
        <ele>350.908284</ele>
        <time>2022-04-05T10:29:19.005Z</time>
      </trkpt>
      <trkpt lat="44.66641" lon="4.37366">
        <ele>350.259274</ele>
        <time>2022-04-05T10:29:27.820Z</time>
      </trkpt>
      <trkpt lat="44.66653" lon="4.37363">
        <ele>349.206016</ele>
        <time>2022-04-05T10:29:42.479Z</time>
      </trkpt>
      <trkpt lat="44.66658" lon="4.37352">
        <ele>348.410869</ele>
        <time>2022-04-05T10:29:53.139Z</time>
      </trkpt>
      <trkpt lat="44.66657" lon="4.3732">
        <ele>345.176483</ele>
        <time>2022-04-05T10:30:21.172Z</time>
      </trkpt>
      <trkpt lat="44.66644" lon="4.3729">
        <ele>341.58056</ele>
        <time>2022-04-05T10:30:51.476Z</time>
      </trkpt>
      <trkpt lat="44.66631" lon="4.37228">
        <ele>334.773714</ele>
        <time>2022-04-05T10:31:51.881Z</time>
      </trkpt>
      <trkpt lat="44.66631" lon="4.37228">
        <ele>334.773714</ele>
        <time>2022-04-05T10:31:52.311Z</time>
      </trkpt>
      <trkpt lat="44.66615" lon="4.372">
        <ele>330.984265</ele>
        <time>2022-04-05T10:32:25.530Z</time>
      </trkpt>
      <trkpt lat="44.66602" lon="4.3716">
        <ele>326.408525</ele>
        <time>2022-04-05T10:33:07.031Z</time>
      </trkpt>
      <trkpt lat="44.66586" lon="4.37077">
        <ele>317.344361</ele>
        <time>2022-04-05T10:34:27.005Z</time>
      </trkpt>
      <trkpt lat="44.6657" lon="4.37016">
        <ele>310.402972</ele>
        <time>2022-04-05T10:35:26.494Z</time>
      </trkpt>
      <trkpt lat="44.66571" lon="4.36985">
        <ele>307.016396</ele>
        <time>2022-04-05T10:35:55.971Z</time>
      </trkpt>
      <trkpt lat="44.66575" lon="4.36968">
        <ele>305.192306</ele>
        <time>2022-04-05T10:36:12.838Z</time>
      </trkpt>
      <trkpt lat="44.66583" lon="4.36934">
        <ele>301.343626</ele>
        <time>2022-04-05T10:36:46.382Z</time>
      </trkpt>
      <trkpt lat="44.66581" lon="4.36923">
        <ele>300.138408</ele>
        <time>2022-04-05T10:36:57.497Z</time>
      </trkpt>
      <trkpt lat="44.66568" lon="4.3694">
        <ele>297.468385</ele>
        <time>2022-04-05T10:37:19.215Z</time>
      </trkpt>
      <trkpt lat="44.66565" lon="4.36968">
        <ele>294.635752</ele>
        <time>2022-04-05T10:37:45.454Z</time>
      </trkpt>
      <trkpt lat="44.66557" lon="4.36979">
        <ele>293.59709</ele>
        <time>2022-04-05T10:37:58.567Z</time>
      </trkpt>
      <trkpt lat="44.66545" lon="4.36972">
        <ele>292.447792</ele>
        <time>2022-04-05T10:38:15.092Z</time>
      </trkpt>
      <trkpt lat="44.66536" lon="4.36862">
        <ele>285.481403</ele>
        <time>2022-04-05T10:39:47.503Z</time>
      </trkpt>
      <trkpt lat="44.66533" lon="4.36806">
        <ele>281.937314</ele>
        <time>2022-04-05T10:40:32.036Z</time>
      </trkpt>
      <trkpt lat="44.66528" lon="4.36803">
        <ele>281.462657</ele>
        <time>2022-04-05T10:40:37.747Z</time>
      </trkpt>
      <trkpt lat="44.66513" lon="4.3681">
        <ele>280.014762</ele>
        <time>2022-04-05T10:40:55.983Z</time>
      </trkpt>
      <trkpt lat="44.66519" lon="4.36795">
        <ele>278.902358</ele>
        <time>2022-04-05T10:41:10.765Z</time>
      </trkpt>
      <trkpt lat="44.66519" lon="4.36795">
        <ele>278.902358</ele>
        <time>2022-04-05T10:41:10.919Z</time>
      </trkpt>
      <trkpt lat="44.66536" lon="4.36776">
        <ele>277.608986</ele>
        <time>2022-04-05T10:41:35.919Z</time>
      </trkpt>
      <trkpt lat="44.66584" lon="4.36739">
        <ele>274.444897</ele>
        <time>2022-04-05T10:42:37.575Z</time>
      </trkpt>
      <trkpt lat="44.66593" lon="4.36726">
        <ele>273.676314</ele>
        <time>2022-04-05T10:42:52.091Z</time>
      </trkpt>
      <trkpt lat="44.6661" lon="4.36678">
        <ele>271.422019</ele>
        <time>2022-04-05T10:43:34.746Z</time>
      </trkpt>
      <trkpt lat="44.66641" lon="4.36646">
        <ele>269.190098</ele>
        <time>2022-04-05T10:44:17.158Z</time>
      </trkpt>
      <trkpt lat="44.66644" lon="4.36643">
        <ele>268.986748</ele>
        <time>2022-04-05T10:44:20.932Z</time>
      </trkpt>
      <trkpt lat="44.66637" lon="4.36604">
        <ele>267.69862</ele>
        <time>2022-04-05T10:44:52.707Z</time>
      </trkpt>
      <trkpt lat="44.66606" lon="4.36611">
        <ele>266.596927</ele>
        <time>2022-04-05T10:45:25.959Z</time>
      </trkpt>
      <trkpt lat="44.66582" lon="4.36611">
        <ele>265.71921</ele>
        <time>2022-04-05T10:45:52.199Z</time>
      </trkpt>
      <trkpt lat="44.6658" lon="4.36603">
        <ele>265.498603</ele>
        <time>2022-04-05T10:45:58.969Z</time>
      </trkpt>
      <trkpt lat="44.66577" lon="4.36593">
        <ele>265.211753</ele>
        <time>2022-04-05T10:46:07.724Z</time>
      </trkpt>
      <trkpt lat="44.66575" lon="4.36585">
        <ele>265.000801</ele>
        <time>2022-04-05T10:46:14.085Z</time>
      </trkpt>
      <trkpt lat="44.66568" lon="4.36563">
        <ele>264.390596</ele>
        <time>2022-04-05T10:46:32.277Z</time>
      </trkpt>
      <trkpt lat="44.6656" lon="4.36542">
        <ele>263.787202</ele>
        <time>2022-04-05T10:46:50.711Z</time>
      </trkpt>
      <trkpt lat="44.66542" lon="4.36498">
        <ele>262.462049</ele>
        <time>2022-04-05T10:47:29.869Z</time>
      </trkpt>
      <trkpt lat="44.66536" lon="4.36484">
        <ele>262.068881</ele>
        <time>2022-04-05T10:47:41.039Z</time>
      </trkpt>
      <trkpt lat="44.66578" lon="4.36455">
        <ele>262.240348</ele>
        <time>2022-04-05T10:48:28.981Z</time>
      </trkpt>
      <trkpt lat="44.666" lon="4.36446">
        <ele>262.448558</ele>
        <time>2022-04-05T10:48:52.234Z</time>
      </trkpt>
      <trkpt lat="44.66653" lon="4.36402">
        <ele>263.005077</ele>
        <time>2022-04-05T10:49:57.133Z</time>
      </trkpt>
      <trkpt lat="44.66689" lon="4.36365">
        <ele>263.405067</ele>
        <time>2022-04-05T10:50:44.005Z</time>
      </trkpt>
      <trkpt lat="44.66752" lon="4.36323">
        <ele>265.142848</ele>
        <time>2022-04-05T10:52:05.912Z</time>
      </trkpt>
      <trkpt lat="44.66781" lon="4.36289">
        <ele>266.16736</ele>
        <time>2022-04-05T10:52:47.479Z</time>
      </trkpt>
      <trkpt lat="44.66802" lon="4.36233">
        <ele>267.41915</ele>
        <time>2022-04-05T10:53:37.444Z</time>
      </trkpt>
      <trkpt lat="44.66806" lon="4.36179">
        <ele>268.424104</ele>
        <time>2022-04-05T10:54:18.483Z</time>
      </trkpt>
      <trkpt lat="44.66826" lon="4.36152">
        <ele>268.424104</ele>
        <time>2022-04-05T10:54:46.345Z</time>
      </trkpt>
      <trkpt lat="44.66826" lon="4.36152">
        <ele>268.424104</ele>
        <time>2022-04-05T10:54:47.676Z</time>
      </trkpt>
      <trkpt lat="44.66854" lon="4.36135">
        <ele>268.424104</ele>
        <time>2022-04-05T10:55:19.364Z</time>
      </trkpt>
      <trkpt lat="44.66892" lon="4.36128">
        <ele>268.424104</ele>
        <time>2022-04-05T10:55:58.107Z</time>
      </trkpt>
      <trkpt lat="44.66919" lon="4.36128">
        <ele>268.424104</ele>
        <time>2022-04-05T10:56:25.160Z</time>
      </trkpt>
      <trkpt lat="44.66932" lon="4.36136">
        <ele>268.424104</ele>
        <time>2022-04-05T10:56:41.055Z</time>
      </trkpt>
      <trkpt lat="44.66921" lon="4.36149">
        <ele>268.424104</ele>
        <time>2022-04-05T10:56:55.915Z</time>
      </trkpt>
      <trkpt lat="44.66914" lon="4.3616">
        <ele>268.424104</ele>
        <time>2022-04-05T10:57:07.879Z</time>
      </trkpt>
      <trkpt lat="44.66897" lon="4.3617">
        <ele>268.424104</ele>
        <time>2022-04-05T10:57:28.343Z</time>
      </trkpt>
      <trkpt lat="44.66869" lon="4.362">
        <ele>268.424104</ele>
        <time>2022-04-05T10:58:05.442Z</time>
      </trkpt>
      <trkpt lat="44.66877" lon="4.36222">
        <ele>268.424104</ele>
        <time>2022-04-05T10:58:23.493Z</time>
      </trkpt>
    </trkseg>
  </trk>
</gpx>